Time;durP1;ratioP1;P1;durP2;ratioP2;P2;SDS_P1;SDS_P2;PMS_P1;PMS_P2;Temp;Humidity;BMP_temperature;BMP_pressure;BME280_temperature;BME280_humidity;BME280_pressure;Samples;Min_cycle;Max_cycle;Signal;HPM_P1;HPM_P2
2022/01/03 00:01:36;;;;;;;3.80;2.02;;;;;;;9.24;83.13;99611.04;1687417;84;21634;-77
2022/01/03 00:04:03;;;;;;;5.60;3.35;;;;;;;9.23;83.13;99609.70;1684446;83;21098;-77
2022/01/03 00:06:30;;;;;;;5.15;3.95;;;;;;;9.22;83.19;99607.52;1666081;85;21701;-77
2022/01/03 00:08:56;;;;;;;5.30;3.77;;;;;;;9.23;83.24;99604.45;1691624;84;21078;-79
2022/01/03 00:11:23;;;;;;;3.27;2.72;;;;;;;9.22;83.25;99603.58;1668472;85;21801;-80
2022/01/03 00:13:51;;;;;;;2.85;2.02;;;;;;;9.20;83.22;99605.31;1672422;84;21516;-79
2022/01/03 00:16:17;;;;;;;3.83;2.12;;;;;;;9.15;83.20;99605.23;1668998;84;21120;-79
2022/01/03 00:18:44;;;;;;;8.93;4.95;;;;;;;9.10;83.26;99604.32;1665836;85;21634;-78
2022/01/03 00:21:13;;;;;;;6.95;4.50;;;;;;;9.10;83.41;99605.63;1672066;84;21622;-78
2022/01/03 00:23:40;;;;;;;7.55;4.80;;;;;;;9.08;83.42;99607.33;1672171;84;21952;-78
2022/01/03 00:26:08;;;;;;;5.05;3.08;;;;;;;9.07;83.49;99601.64;1668382;85;21868;-79
2022/01/03 00:28:38;;;;;;;0.95;0.80;;;;;;;9.05;83.49;99603.81;1672356;85;21143;-78
2022/01/03 00:31:05;;;;;;;1.87;0.90;;;;;;;9.05;83.49;99605.13;1675269;84;21075;-80
2022/01/03 00:33:32;;;;;;;3.60;0.88;;;;;;;9.02;83.47;99607.70;1709287;82;21644;-78
2022/01/03 00:36:04;;;;;;;1.85;1.27;;;;;;;8.92;83.42;99600.14;1730150;81;21663;-79
2022/01/03 00:38:33;;;;;;;1.72;0.90;;;;;;;8.96;83.53;99620.31;1712958;83;21091;-79
2022/01/03 00:40:59;;;;;;;1.98;0.80;;;;;;;8.94;83.50;99607.60;1712903;82;21083;-78
2022/01/03 00:43:27;;;;;;;0.40;0.35;;;;;;;8.91;83.50;99612.36;1721058;83;22263;-78
2022/01/03 00:45:54;;;;;;;1.10;1.00;;;;;;;8.91;83.50;99614.11;1722648;82;21068;-77
2022/01/03 00:48:21;;;;;;;2.17;0.82;;;;;;;8.86;83.48;99616.69;1740826;81;22571;-79
2022/01/03 00:50:48;;;;;;;2.22;0.70;;;;;;;8.87;83.61;99618.88;1729916;81;21088;-79
2022/01/03 00:53:15;;;;;;;3.33;0.70;;;;;;;8.86;83.56;99618.00;1727508;82;21121;-82
2022/01/03 00:56:07;;;;;;;1.20;0.70;;;;;;;8.86;83.60;99622.34;1707154;82;21570;-81
2022/01/03 00:58:37;;;;;;;0.62;0.62;;;;;;;8.87;83.55;99626.75;1722356;82;21092;-82
2022/01/03 01:01:05;;;;;;;2.55;1.17;;;;;;;8.85;83.51;99628.03;1728924;81;21769;-82
2022/01/03 01:03:37;;;;;;;1.07;0.70;;;;;;;8.84;83.58;99630.22;1734317;81;21097;-82
2022/01/03 01:06:07;;;;;;;0.33;0.30;;;;;;;8.83;83.51;99625.81;1729126;81;20988;-79
2022/01/03 01:08:35;;;;;;;1.90;0.62;;;;;;;8.80;83.56;99634.95;1739589;81;21145;-79
2022/01/03 01:11:05;;;;;;;0.30;0.30;;;;;;;8.80;83.54;99631.45;1717805;81;21655;-79
2022/01/03 01:13:32;;;;;;;0.80;0.50;;;;;;;8.79;83.55;99628.39;1717187;82;22416;-79
2022/01/03 01:15:58;;;;;;;0.55;0.50;;;;;;;8.79;83.64;99638.89;1716385;83;21309;-79
2022/01/03 01:18:25;;;;;;;0.93;0.90;;;;;;;8.77;83.53;99639.30;1716175;83;21087;-80
2022/01/03 01:20:52;;;;;;;2.65;0.60;;;;;;;8.74;83.57;99643.61;1716982;82;21596;-80
2022/01/03 01:23:21;;;;;;;1.77;0.60;;;;;;;8.71;83.62;99646.22;1714793;81;21743;-79
2022/01/03 01:28:15;;;;;;;0.95;0.55;;;;;;;8.73;83.69;99648.42;1716734;82;21020;-83
2022/01/03 01:30:42;;;;;;;1.27;0.50;;;;;;;8.72;83.72;99648.40;1724961;82;21052;-83
2022/01/03 01:33:12;;;;;;;1.82;0.60;;;;;;;8.73;83.70;99654.11;1727531;81;21326;-83
2022/01/03 01:35:52;;;;;;;1.12;0.62;;;;;;;8.72;83.70;99649.27;1727240;82;21667;-83
2022/01/03 01:38:22;;;;;;;2.52;0.80;;;;;;;8.71;83.68;99649.27;1728217;81;22841;-84
2022/01/03 01:40:51;;;;;;;1.10;0.65;;;;;;;8.70;83.67;99652.30;1728526;82;21086;-83
2022/01/03 01:43:43;;;;;;;1.72;0.62;;;;;;;8.69;83.60;99647.03;1728606;82;21082;-83
2022/01/03 01:46:20;;;;;;;1.85;0.80;;;;;;;8.66;83.57;99652.25;1682531;82;21516;-82
2022/01/03 01:48:51;;;;;;;4.03;0.90;;;;;;;8.63;83.54;99655.69;1726413;81;21091;-82
2022/01/03 01:51:21;;;;;;;1.00;0.40;;;;;;;8.60;83.57;99655.66;1729142;81;21757;-83
2022/01/03 01:53:50;;;;;;;1.75;0.80;;;;;;;8.59;83.60;99671.38;1727599;81;21091;-83
2022/01/03 01:56:25;;;;;;;2.27;0.60;;;;;;;8.58;83.62;99671.81;1726567;82;21486;-82
2022/01/03 01:59:20;;;;;;;1.60;0.90;;;;;;;8.54;83.58;99668.25;1725362;81;21006;-82
2022/01/03 02:01:52;;;;;;;1.25;0.78;;;;;;;8.54;83.57;99668.69;1722041;82;21106;-82
2022/01/03 02:04:30;;;;;;;1.37;0.90;;;;;;;8.52;83.58;99675.22;1717037;81;21684;-83
2022/01/03 02:06:57;;;;;;;1.07;0.78;;;;;;;8.52;83.59;99676.94;1729764;81;21129;-83
2022/01/03 02:09:42;;;;;;;1.57;0.47;;;;;;;8.51;83.60;99673.44;1724521;82;21114;-83
2022/01/03 02:12:19;;;;;;;1.02;0.60;;;;;;;8.52;83.62;99676.94;1679015;83;21081;-82
2022/01/03 02:14:47;;;;;;;1.67;1.20;;;;;;;8.53;83.60;99686.58;1709570;83;21090;-83
2022/01/03 02:17:13;;;;;;;1.05;0.47;;;;;;;8.52;83.70;99683.48;1709761;83;22598;-83
2022/01/03 02:19:40;;;;;;;2.33;0.75;;;;;;;8.53;83.71;99693.14;1731661;82;21712;-83
2022/01/03 02:22:10;;;;;;;1.50;0.80;;;;;;;8.50;83.80;99686.12;1734373;81;21039;-83
2022/01/03 02:24:37;;;;;;;0.75;0.50;;;;;;;8.52;83.82;99691.36;1690284;82;21064;-83
2022/01/03 02:27:03;;;;;;;0.70;0.45;;;;;;;8.52;83.91;99695.30;1731099;82;21118;-83
2022/01/03 02:29:30;;;;;;;0.68;0.68;;;;;;;8.53;83.93;99698.39;1721064;82;21740;-84
2022/01/03 02:31:57;;;;;;;0.98;0.60;;;;;;;8.52;83.94;99691.36;1730885;82;21138;-84
2022/01/03 02:34:27;;;;;;;1.25;0.50;;;;;;;8.49;83.92;99700.07;1716137;82;21068;-84
2022/01/03 02:36:52;;;;;;;0.85;0.40;;;;;;;8.50;83.99;99697.02;1720940;81;21486;-83
2022/01/03 02:39:18;;;;;;;0.30;0.30;;;;;;;8.51;84.02;99700.98;1727371;82;21141;-83
2022/01/03 02:41:45;;;;;;;0.98;0.47;;;;;;;8.52;84.02;99704.07;1729619;82;21648;-83
2022/01/03 02:44:12;;;;;;;2.02;1.87;;;;;;;8.53;84.07;99708.44;1734630;81;21082;-80
2022/01/03 02:46:40;;;;;;;1.15;0.70;;;;;;;8.54;84.02;99709.34;1733298;81;21129;-80
2022/01/03 02:49:07;;;;;;;1.35;0.72;;;;;;;8.52;84.07;99709.31;1720964;81;21256;-80
2022/01/03 02:51:34;;;;;;;0.95;0.40;;;;;;;8.53;84.13;99709.75;1728292;81;21065;-80
2022/01/03 02:54:00;;;;;;;1.00;0.40;;;;;;;8.52;84.18;99713.66;1727880;81;22555;-80
2022/01/03 02:56:33;;;;;;;1.25;0.50;;;;;;;8.52;84.22;99707.09;1727280;82;21108;-80
2022/01/03 02:59:00;;;;;;;1.75;0.50;;;;;;;8.52;84.28;99705.78;1729812;82;21086;-79
2022/01/03 03:01:28;;;;;;;0.50;0.40;;;;;;;8.53;84.35;99711.50;1724135;82;21571;-80
2022/01/03 03:03:55;;;;;;;1.10;0.50;;;;;;;8.53;84.35;99712.81;1723205;82;21084;-80
2022/01/03 03:06:21;;;;;;;1.30;0.50;;;;;;;8.52;84.34;99709.72;1726113;82;22340;-80
2022/01/03 03:08:48;;;;;;;0.82;0.50;;;;;;;8.51;84.77;99708.84;1725606;81;21094;-80
2022/01/03 03:11:15;;;;;;;0.53;0.47;;;;;;;8.50;84.75;99715.38;1722656;82;21115;-80
2022/01/03 03:13:41;;;;;;;0.85;0.50;;;;;;;8.49;84.55;99712.31;1726253;81;21196;-80
2022/01/03 03:16:08;;;;;;;1.47;0.75;;;;;;;8.49;84.56;99718.43;1721432;81;21071;-79
2022/01/03 03:18:35;;;;;;;1.17;0.65;;;;;;;8.48;84.61;99727.58;1721343;81;21790;-79
2022/01/03 03:21:01;;;;;;;1.95;1.02;;;;;;;8.47;84.62;99716.66;1722554;82;22235;-79
2022/01/03 03:23:28;;;;;;;3.35;0.55;;;;;;;8.48;84.67;99724.52;1725332;82;21086;-79
2022/01/03 03:25:55;;;;;;;1.87;0.70;;;;;;;8.50;84.73;99727.17;1728601;81;21122;-79
2022/01/03 03:28:25;;;;;;;1.72;0.80;;;;;;;8.51;84.75;99723.70;1726982;82;21122;-79
2022/01/03 03:30:50;;;;;;;1.98;0.80;;;;;;;8.50;84.74;99721.52;1716975;81;21784;-78
2022/01/03 03:33:19;;;;;;;4.33;1.02;;;;;;;8.51;84.80;99724.58;1713144;82;21245;-79
2022/01/03 03:35:46;;;;;;;3.40;1.20;;;;;;;8.54;84.84;99723.33;1726949;82;21069;-79
2022/01/03 03:38:12;;;;;;;5.75;1.47;;;;;;;8.56;84.81;99725.98;1728779;81;21185;-80
2022/01/03 03:40:39;;;;;;;4.20;1.87;;;;;;;8.55;84.72;99731.64;1726024;81;21109;-80
2022/01/03 03:43:06;;;;;;;5.95;1.80;;;;;;;8.55;84.76;99732.08;1727539;81;22665;-78
2022/01/03 03:45:33;;;;;;;7.50;1.90;;;;;;;8.56;84.79;99733.86;1729359;81;21102;-79
2022/01/03 03:48:01;;;;;;;5.28;2.02;;;;;;;8.59;84.85;99730.39;1719657;82;21094;-79
2022/01/03 03:50:28;;;;;;;7.37;2.77;;;;;;;8.59;84.76;99736.95;1729877;81;21542;-79
2022/01/03 03:52:54;;;;;;;5.08;2.15;;;;;;;8.59;84.81;99736.95;1729919;82;21094;-78
2022/01/03 03:55:21;;;;;;;5.08;1.95;;;;;;;8.60;84.81;99729.11;1721407;82;21721;-79
2022/01/03 03:57:48;;;;;;;3.52;1.70;;;;;;;8.62;84.78;99735.27;1724164;82;21059;-78
2022/01/03 04:00:17;;;;;;;5.45;1.98;;;;;;;8.62;84.69;99732.64;1726018;82;21062;-79
2022/01/03 04:02:43;;;;;;;7.12;1.77;;;;;;;8.61;84.68;99732.17;1676938;82;21324;-79
2022/01/03 04:05:10;;;;;;;5.92;1.62;;;;;;;8.60;84.64;99724.30;1732134;81;21086;-80
2022/01/03 04:07:37;;;;;;;6.67;1.52;;;;;;;8.59;84.65;99726.02;1724200;81;21949;-79
2022/01/03 04:10:05;;;;;;;6.08;1.70;;;;;;;8.59;84.64;99729.95;1724971;82;21490;-80
2022/01/03 04:12:32;;;;;;;6.17;1.82;;;;;;;8.58;84.67;99733.45;1723038;82;21085;-80
2022/01/03 04:14:59;;;;;;;3.70;1.52;;;;;;;8.60;84.68;99730.86;1730820;81;21074;-80
2022/01/03 04:17:26;;;;;;;6.40;1.37;;;;;;;8.60;84.63;99726.92;1727278;81;21107;-80
2022/01/03 04:19:52;;;;;;;5.83;1.60;;;;;;;8.60;84.70;99719.05;1726674;81;22554;-79
2022/01/03 04:22:19;;;;;;;3.55;1.50;;;;;;;8.59;84.56;99722.08;1723195;82;21090;-80
2022/01/03 04:24:45;;;;;;;3.55;1.50;;;;;;;8.58;84.56;99721.65;1724830;81;21514;-79
2022/01/03 04:27:12;;;;;;;3.95;1.67;;;;;;;8.56;84.58;99717.68;1725316;81;21077;-79
2022/01/03 04:29:39;;;;;;;2.98;1.42;;;;;;;8.57;84.56;99731.67;1719644;82;21052;-79
2022/01/03 04:32:06;;;;;;;3.75;1.47;;;;;;;8.56;84.61;99725.55;1722950;81;21738;-79
2022/01/03 04:34:36;;;;;;;5.55;1.80;;;;;;;8.60;84.57;99733.48;1731346;81;21063;-79
2022/01/03 04:37:03;;;;;;;5.30;1.90;;;;;;;8.59;84.53;99732.58;1725413;82;21059;-79
2022/01/03 04:39:29;;;;;;;6.78;2.05;;;;;;;8.58;84.56;99728.61;1720980;81;21734;-80
2022/01/03 04:41:56;;;;;;;3.98;1.40;;;;;;;8.59;84.55;99725.14;1727037;82;21062;-79
2022/01/03 04:44:23;;;;;;;4.08;1.50;;;;;;;8.57;84.41;99719.87;1726486;81;21769;-80
2022/01/03 04:46:51;;;;;;;9.33;2.00;;;;;;;8.54;84.42;99724.64;1724810;81;21083;-80
2022/01/03 04:49:17;;;;;;;3.80;1.50;;;;;;;8.54;84.43;99732.95;1721015;82;21674;-79
2022/01/03 04:51:44;;;;;;;4.08;1.67;;;;;;;8.53;84.43;99725.48;1713928;82;21462;-78
2022/01/03 04:54:11;;;;;;;3.87;1.20;;;;;;;8.53;84.49;99719.37;1735782;81;21592;-83
2022/01/03 04:56:37;;;;;;;4.78;1.40;;;;;;;8.55;84.46;99722.89;1727808;82;21804;-77
2022/01/03 04:59:04;;;;;;;4.17;1.32;;;;;;;8.53;84.44;99722.86;1724772;82;20987;-78
2022/01/03 05:01:31;;;;;;;4.17;1.42;;;;;;;8.54;84.43;99719.84;1725627;82;21549;-77
2022/01/03 05:03:57;;;;;;;6.17;1.42;;;;;;;8.54;84.39;99725.08;1726490;81;21061;-78
2022/01/03 05:06:24;;;;;;;6.05;1.70;;;;;;;8.53;84.45;99728.55;1724904;81;21075;-78
2022/01/03 05:08:51;;;;;;;5.87;1.47;;;;;;;8.53;84.39;99727.23;1718998;81;21732;-78
2022/01/03 05:11:17;;;;;;;4.00;1.57;;;;;;;8.52;84.37;99726.36;1729166;81;21019;-79
2022/01/03 05:13:44;;;;;;;6.90;1.65;;;;;;;8.52;84.38;99722.83;1729269;82;21077;-79
2022/01/03 05:16:10;;;;;;;7.72;1.90;;;;;;;8.52;84.37;99729.39;1728748;82;21115;-80
2022/01/03 05:18:37;;;;;;;4.67;1.70;;;;;;;8.51;84.30;99722.40;1726884;81;21065;-80
2022/01/03 05:21:04;;;;;;;5.15;1.57;;;;;;;8.49;84.29;99732.86;1725857;82;21737;-79
2022/01/03 05:23:30;;;;;;;8.38;2.40;;;;;;;8.48;84.27;99735.01;1720610;81;21077;-79
2022/01/03 05:25:59;;;;;;;10.15;2.37;;;;;;;8.48;84.29;99732.83;1726781;81;21577;-78
2022/01/03 05:28:26;;;;;;;5.92;2.02;;;;;;;8.48;84.22;99728.89;1721942;82;21071;-79
2022/01/03 05:30:53;;;;;;;7.85;2.00;;;;;;;8.47;84.21;99733.70;1719204;82;21059;-79
2022/01/03 05:33:19;;;;;;;7.20;2.22;;;;;;;8.44;84.20;99738.44;1725923;82;21734;-78
2022/01/03 05:35:46;;;;;;;7.20;2.22;;;;;;;8.45;84.24;99741.97;1710837;82;21074;-78
2022/01/03 05:38:13;;;;;;;5.62;1.90;;;;;;;8.46;84.26;99739.34;1721196;82;21008;-78
2022/01/03 05:40:40;;;;;;;9.25;2.60;;;;;;;8.47;84.21;99743.75;1729387;82;47131;-78
2022/01/03 05:43:07;;;;;;;9.98;3.10;;;;;;;8.48;84.21;99734.13;1725615;82;21757;-77
2022/01/03 05:45:34;;;;;;;10.63;2.83;;;;;;;8.49;84.15;99738.54;1715661;82;21846;-79
2022/01/03 05:48:00;;;;;;;8.83;2.80;;;;;;;8.50;84.15;99739.88;1722553;82;21111;-78
2022/01/03 05:50:27;;;;;;;12.13;2.52;;;;;;;8.51;84.10;99738.13;1719095;82;21110;-78
2022/01/03 05:52:54;;;;;;;11.88;2.77;;;;;;;8.52;84.10;99737.26;1730136;81;21058;-82
2022/01/03 05:55:20;;;;;;;9.95;3.17;;;;;;;8.55;84.04;99743.88;1727469;82;21101;-82
2022/01/03 05:57:47;;;;;;;13.08;3.47;;;;;;;8.52;83.97;99746.03;1731059;82;22565;-80
2022/01/03 06:00:16;;;;;;;18.48;4.50;;;;;;;8.52;83.95;99742.50;1730158;82;21611;-78
2022/01/03 06:02:43;;;;;;;12.33;4.67;;;;;;;8.50;83.89;99742.50;1724430;82;21524;-80
2022/01/03 06:05:20;;;;;;;16.57;5.92;;;;;;;8.50;83.89;99737.66;1725679;81;21505;-79
2022/01/03 06:07:40;;;;;;;17.07;5.85;;;;;;;8.44;83.69;99733.63;1710712;82;21964;-81
2022/01/03 15:21:15;;;;;;;45.52;22.55;;;;;;;7.86;81.08;99835.16;1650612;84;21244;-82
2022/01/03 15:23:42;;;;;;;23.47;11.48;;;;;;;7.78;81.23;99832.81;1699867;83;21125;-81
2022/01/03 15:26:09;;;;;;;14.03;6.67;;;;;;;7.78;81.45;99842.85;1702997;83;21069;-78
2022/01/03 15:28:37;;;;;;;11.15;5.67;;;;;;;7.81;81.67;99838.53;1709006;83;21823;-77
2022/01/03 15:31:05;;;;;;;12.25;4.58;;;;;;;7.84;81.76;99838.61;1696409;83;21078;-78
2022/01/03 15:33:31;;;;;;;18.90;10.35;;;;;;;7.88;81.86;99832.17;1680939;83;21142;-78
2022/01/03 15:36:01;;;;;;;15.35;8.33;;;;;;;7.91;81.76;99842.70;1691015;83;21567;-78
2022/01/03 15:38:30;;;;;;;12.50;7.15;;;;;;;7.92;81.76;99840.95;1707084;83;21108;-78
2022/01/03 15:41:00;;;;;;;18.32;7.80;;;;;;;7.96;81.81;99842.38;1722031;83;23126;-86
2022/01/03 15:43:27;;;;;;;19.00;8.90;;;;;;;8.01;81.78;99836.34;1694189;83;21085;-83
2022/01/03 15:45:55;;;;;;;21.65;10.48;;;;;;;8.05;81.82;99838.16;1680220;83;21104;-83
2022/01/03 15:48:22;;;;;;;14.70;9.10;;;;;;;8.10;81.80;99839.15;1724358;83;21096;-84
2022/01/03 15:50:50;;;;;;;18.87;8.95;;;;;;;8.13;81.77;99841.84;1678625;83;21486;-84
2022/01/03 15:53:18;;;;;;;22.20;12.23;;;;;;;8.16;81.62;99839.27;1724037;83;21069;-84
2022/01/03 15:55:45;;;;;;;15.30;7.87;;;;;;;8.14;81.44;99832.67;1724422;83;21288;-84
2022/01/03 15:58:12;;;;;;;21.73;15.00;;;;;;;8.13;81.28;99835.30;1724476;82;21142;-84
2022/01/03 16:00:41;;;;;;;19.77;10.63;;;;;;;8.11;81.27;99835.69;1724443;83;21059;-84
2022/01/03 16:03:08;;;;;;;19.55;9.28;;;;;;;8.11;81.25;99844.43;1724507;83;21141;-83
2022/01/03 16:05:35;;;;;;;16.48;5.55;;;;;;;8.11;81.21;99839.19;1724274;83;22575;-83
2022/01/03 16:08:04;;;;;;;13.35;5.03;;;;;;;8.12;81.17;99842.69;1699337;83;21110;-83
2022/01/03 16:10:31;;;;;;;19.50;9.33;;;;;;;8.11;81.11;99840.94;1680551;83;21494;-82
2022/01/03 16:12:58;;;;;;;16.90;9.48;;;;;;;8.08;81.02;99843.48;1682377;83;21106;-84
2022/01/03 16:15:25;;;;;;;16.93;11.43;;;;;;;8.03;81.00;99840.75;1679554;83;21050;-84
2022/01/03 16:17:57;;;;;;;20.10;14.60;;;;;;;7.97;80.97;99834.95;1680454;83;21926;-84
2022/01/03 16:20:24;;;;;;;16.67;10.20;;;;;;;7.88;80.83;99832.17;1686626;83;21109;-83
2022/01/03 16:22:54;;;;;;;15.75;5.67;;;;;;;7.78;80.82;99834.13;1696687;83;21563;-84
2022/01/03 16:25:21;;;;;;;10.15;6.40;;;;;;;7.70;80.86;99836.58;1713774;83;21137;-83
2022/01/03 16:27:49;;;;;;;12.43;5.17;;;;;;;7.62;80.97;99836.84;1713885;83;21066;-84
2022/01/03 16:30:17;;;;;;;16.48;8.03;;;;;;;7.54;81.24;99823.98;1713974;83;21635;-83
2022/01/03 16:32:44;;;;;;;21.62;13.85;;;;;;;7.65;81.37;99821.61;1713761;82;21030;-84
2022/01/03 16:35:13;;;;;;;31.15;15.70;;;;;;;7.69;81.42;99826.94;1665979;83;21046;-83
2022/01/03 16:37:41;;;;;;;32.63;20.95;;;;;;;7.69;81.30;99818.20;1666034;83;21074;-84
2022/01/03 16:40:10;;;;;;;21.23;12.85;;;;;;;7.64;81.21;99816.81;1714075;83;21642;-84
2022/01/03 16:42:37;;;;;;;20.45;13.15;;;;;;;7.57;81.12;99823.63;1714052;83;21824;-84
2022/01/03 16:45:05;;;;;;;13.65;6.67;;;;;;;7.51;81.20;99816.95;1714022;83;21559;-84
2022/01/03 16:47:36;;;;;;;19.62;8.75;;;;;;;7.44;81.14;99822.91;1714066;83;21081;-83
2022/01/03 16:50:03;;;;;;;10.60;5.00;;;;;;;7.36;81.14;99820.11;1713024;83;21026;-84
2022/01/03 16:52:30;;;;;;;10.63;4.15;;;;;;;7.29;81.18;99816.02;1714190;83;21089;-83
2022/01/03 16:54:56;;;;;;;14.33;5.42;;;;;;;7.29;81.51;99822.12;1713918;83;21802;-87
2022/01/03 16:57:25;;;;;;;10.38;5.03;;;;;;;7.33;81.62;99819.16;1714740;83;21015;-86
2022/01/03 16:59:53;;;;;;;17.77;6.22;;;;;;;7.29;81.48;99818.20;1714716;83;21089;-88
2022/01/03 17:02:21;;;;;;;23.12;9.63;;;;;;;7.26;81.44;99823.78;1714779;83;21070;-88
2022/01/03 17:04:50;;;;;;;17.40;7.78;;;;;;;7.20;81.43;99821.47;1678587;83;21093;-86
2022/01/03 17:07:17;;;;;;;42.90;15.13;;;;;;;7.14;81.45;99825.26;1657461;86;21737;-86
2022/01/03 17:09:44;;;;;;;29.37;11.80;;;;;;;7.10;81.54;99822.55;1659209;85;21018;-85
2022/01/03 17:12:13;;;;;;;30.30;9.88;;;;;;;7.07;81.66;99824.65;1681106;85;21109;-85
2022/01/03 17:14:40;;;;;;;23.10;7.97;;;;;;;7.06;81.74;99826.82;1659196;86;21089;-85
2022/01/03 17:17:10;;;;;;;27.55;8.03;;;;;;;7.03;81.79;99827.17;1658756;86;21199;-85
2022/01/03 17:19:37;;;;;;;78.85;25.20;;;;;;;6.98;81.78;99826.64;1658957;86;21763;-85
2022/01/03 17:22:06;;;;;;;49.77;16.12;;;;;;;6.95;81.82;99821.31;1658683;84;21058;-86
2022/01/03 17:24:33;;;;;;;32.78;11.30;;;;;;;6.93;81.92;99819.52;1660568;86;21564;-84
2022/01/03 17:27:04;;;;;;;44.50;14.07;;;;;;;6.92;81.96;99819.05;1660661;85;21102;-85
2022/01/03 17:29:31;;;;;;;23.65;7.30;;;;;;;6.91;82.06;99818.60;1660906;86;21082;-85
2022/01/03 17:31:58;;;;;;;68.57;23.50;;;;;;;6.93;82.21;99818.22;1660838;86;22313;-85
2022/01/03 17:34:24;;;;;;;111.35;35.15;;;;;;;6.94;82.31;99812.99;1660956;86;21135;-85
2022/01/03 17:36:51;;;;;;;56.58;19.48;;;;;;;6.97;82.40;99810.47;1660781;85;21093;-85
2022/01/03 17:39:17;;;;;;;31.50;9.68;;;;;;;7.05;82.51;99812.39;1660863;86;21090;-84
2022/01/03 17:41:47;;;;;;;69.55;25.55;;;;;;;7.09;82.50;99808.98;1660266;86;22267;-86
2022/01/03 17:44:18;;;;;;;36.35;11.35;;;;;;;7.12;82.37;99809.95;1627759;86;22022;-84
2022/01/03 17:46:47;;;;;;;61.20;24.43;;;;;;;7.13;82.32;99808.20;1627419;86;21147;-83
2022/01/03 17:49:14;;;;;;;40.12;18.25;;;;;;;7.14;82.31;99804.76;1627585;87;21107;-83
2022/01/03 17:51:41;;;;;;;56.10;28.55;;;;;;;7.16;82.31;99809.60;1627644;86;21115;-83
2022/01/03 17:54:07;;;;;;;52.98;30.85;;;;;;;7.18;82.33;99810.09;1627579;87;21105;-83
2022/01/03 17:56:35;;;;;;;41.33;22.52;;;;;;;7.20;82.24;99803.58;1627853;86;21815;-83
2022/01/03 17:59:01;;;;;;;24.12;10.70;;;;;;;7.18;82.19;99800.05;1627668;87;21107;-82
2022/01/03 18:01:28;;;;;;;37.80;11.33;;;;;;;7.18;82.17;99801.36;1628226;88;21131;-84
2022/01/03 18:03:55;;;;;;;30.95;11.57;;;;;;;7.17;82.15;99807.42;1627883;86;21127;-82
2022/01/03 18:06:22;;;;;;;41.28;15.13;;;;;;;7.16;82.13;99802.63;1627764;88;21170;-82
2022/01/03 18:08:49;;;;;;;46.10;19.23;;;;;;;7.16;82.13;99796.52;1627595;86;22601;-82
2022/01/03 18:11:15;;;;;;;35.65;15.38;;;;;;;7.12;82.05;99797.30;1646141;86;21352;-83
2022/01/03 18:13:42;;;;;;;78.78;36.85;;;;;;;7.06;81.95;99798.44;1656670;86;21092;-83
2022/01/03 18:16:09;;;;;;;39.73;18.98;;;;;;;6.98;81.89;99796.95;1703217;83;21596;-83
2022/01/03 18:18:38;;;;;;;36.55;18.98;;;;;;;6.89;81.88;99798.94;1702804;83;21745;-76
2022/01/03 18:21:04;;;;;;;43.92;24.52;;;;;;;6.81;81.96;99803.98;1702896;83;21746;-80
2022/01/03 18:23:31;;;;;;;38.65;18.20;;;;;;;6.66;81.97;99786.58;1686088;82;21082;-81
2022/01/03 18:25:59;;;;;;;31.57;15.30;;;;;;;6.69;82.05;99798.86;1709723;82;21058;-82
2022/01/03 18:28:29;;;;;;;27.20;15.23;;;;;;;6.60;82.07;99799.07;1711105;82;21001;-90
2022/01/03 18:30:54;;;;;;;30.02;17.17;;;;;;;6.54;82.18;99805.46;1706086;83;21119;-77
2022/01/03 18:33:21;;;;;;;32.60;18.45;;;;;;;6.49;82.29;99804.45;1706062;84;21787;-76
2022/01/03 18:35:49;;;;;;;28.02;11.65;;;;;;;6.45;82.39;99806.52;1706322;84;21078;-84
2022/01/03 18:38:16;;;;;;;22.95;9.25;;;;;;;6.40;82.44;99806.42;1706928;83;21020;-86
2022/01/03 18:40:45;;;;;;;30.65;16.32;;;;;;;6.38;82.65;99804.59;1706105;83;21609;-85
2022/01/03 18:43:12;;;;;;;35.80;20.57;;;;;;;6.40;82.76;99800.28;1706396;84;21101;-83
2022/01/03 18:45:47;;;;;;;39.25;20.12;;;;;;;6.37;82.80;99798.91;1706359;84;21792;-85
2022/01/03 18:48:16;;;;;;;24.43;12.18;;;;;;;6.38;82.75;99803.28;1702985;83;21094;-85
2022/01/03 18:50:43;;;;;;;28.45;11.90;;;;;;;6.37;82.81;99802.84;1707749;83;21085;-84
2022/01/03 18:53:18;;;;;;;40.90;22.60;;;;;;;6.31;82.75;99797.02;1725123;82;21548;-83
2022/01/03 18:55:46;;;;;;;29.02;15.68;;;;;;;6.30;82.82;99796.97;1706488;82;21077;-84
2022/01/03 18:58:11;;;;;;;23.12;10.90;;;;;;;6.22;82.83;99792.42;1706304;83;21789;-84
2022/01/03 19:00:44;;;;;;;25.02;11.20;;;;;;;6.23;82.85;99793.30;1706720;83;21544;-85
2022/01/03 19:03:09;;;;;;;28.67;15.85;;;;;;;6.21;82.94;99791.98;1706558;82;21134;-86
2022/01/03 19:05:37;;;;;;;26.87;14.43;;;;;;;6.19;82.94;99791.45;1709202;82;21073;-84
2022/01/03 19:08:04;;;;;;;29.92;11.80;;;;;;;6.16;83.01;99787.47;1710069;83;21134;-83
2022/01/03 19:10:43;;;;;;;26.23;10.65;;;;;;;6.15;83.06;99792.22;1709051;83;22644;-81
2022/01/03 19:13:18;;;;;;;21.55;8.90;;;;;;;6.13;83.10;99785.64;1706952;83;21085;-86
2022/01/03 19:15:45;;;;;;;24.12;7.45;;;;;;;6.14;83.13;99787.85;1708049;83;21085;-82
2022/01/03 19:18:15;;;;;;;23.05;8.43;;;;;;;6.11;83.18;99780.80;1711413;83;21160;-83
2022/01/03 19:20:45;;;;;;;21.77;8.58;;;;;;;6.09;83.22;99785.09;1664194;83;21097;-82
2022/01/03 19:23:12;;;;;;;34.53;16.87;;;;;;;6.09;83.28;99785.53;1674048;83;21808;-83
2022/01/03 19:25:39;;;;;;;32.73;17.40;;;;;;;6.06;83.29;99785.43;1707551;83;21558;-84
2022/01/03 19:28:10;;;;;;;22.07;10.30;;;;;;;6.05;83.34;99786.29;1708811;83;21181;-84
2022/01/03 19:30:38;;;;;;;28.90;15.45;;;;;;;6.02;83.42;99780.54;1710321;83;21302;-82
2022/01/03 19:38:22;;;;;;;22.48;7.85;;;;;;;6.09;83.68;99775.08;1707759;83;21074;-81
2022/01/03 19:40:49;;;;;;;19.42;7.33;;;;;;;6.09;83.66;99771.16;1708652;83;21149;-82
2022/01/03 19:43:16;;;;;;;33.33;13.98;;;;;;;6.07;83.63;99768.92;1708290;83;21280;-81
2022/01/03 19:45:51;;;;;;;28.52;12.03;;;;;;;6.03;83.67;99766.22;1708120;83;21094;-82
2022/01/03 19:48:15;;;;;;;33.15;14.07;;;;;;;6.02;83.72;99757.94;1709584;83;21927;-81
2022/01/03 19:50:42;;;;;;;36.25;16.10;;;;;;;6.03;83.84;99767.95;1709356;83;21066;-80
2022/01/03 19:53:09;;;;;;;27.90;10.78;;;;;;;6.02;83.81;99756.63;1709532;83;21576;-80
2022/01/03 19:55:35;;;;;;;26.00;9.95;;;;;;;5.99;83.78;99756.53;1663788;83;21072;-81
2022/01/03 19:58:02;;;;;;;21.90;6.70;;;;;;;5.99;83.87;99755.66;1690791;84;21082;-80
2022/01/03 20:00:29;;;;;;;15.40;7.65;;;;;;;5.96;83.90;99762.09;1646444;85;21742;-82
2022/01/03 20:02:56;;;;;;;23.85;9.18;;;;;;;5.94;83.95;99762.02;1688179;84;21113;-81
2022/01/03 20:05:22;;;;;;;21.37;8.98;;;;;;;5.96;84.08;99771.23;1688168;84;21121;-82
2022/01/03 20:07:50;;;;;;;24.10;9.50;;;;;;;5.99;84.38;99778.73;1688128;84;21125;-78
2022/01/03 20:10:17;;;;;;;25.95;8.93;;;;;;;6.13;84.73;99775.19;1660197;84;21101;-83
2022/01/03 20:12:45;;;;;;;20.88;7.47;;;;;;;6.25;84.79;99775.05;1688961;84;22605;-82
2022/01/03 20:15:11;;;;;;;15.43;6.25;;;;;;;6.32;84.64;99761.31;1690852;84;21591;-83
2022/01/03 20:17:38;;;;;;;16.85;7.20;;;;;;;6.32;84.40;99763.92;1690947;84;21635;-83
2022/01/03 20:20:07;;;;;;;14.58;6.00;;;;;;;6.32;84.26;99758.70;1690905;84;21243;-83
2022/01/03 20:22:34;;;;;;;12.80;4.70;;;;;;;6.31;84.11;99751.72;1691181;84;21101;-83
2022/01/03 20:25:02;;;;;;;13.53;5.25;;;;;;;6.27;83.87;99752.05;1694975;83;21811;-83
2022/01/03 20:27:29;;;;;;;12.07;4.70;;;;;;;6.21;83.82;99750.17;1697208;82;21030;-82
2022/01/03 20:30:01;;;;;;;12.37;5.42;;;;;;;6.19;83.80;99750.95;1692651;84;21086;-81
2022/01/03 20:32:30;;;;;;;12.33;4.30;;;;;;;6.16;83.75;99758.30;1695627;82;21169;-83
2022/01/03 20:35:02;;;;;;;14.83;5.05;;;;;;;6.17;83.87;99755.25;1661667;84;21090;-81
2022/01/03 20:37:35;;;;;;;21.65;10.00;;;;;;;6.20;84.05;99756.22;1695172;83;21793;-81
2022/01/03 20:40:08;;;;;;;21.52;11.05;;;;;;;6.25;83.98;99750.22;1696927;82;21089;-81
2022/01/03 20:42:32;;;;;;;39.95;25.35;;;;;;;6.22;83.69;99753.66;1711642;81;21069;-82
2022/01/03 20:45:19;;;;;;;21.52;12.45;;;;;;;6.18;83.42;99746.58;1665448;83;21116;-82
2022/01/03 20:47:47;;;;;;;45.48;30.35;;;;;;;6.12;83.20;99746.00;1711718;81;21077;-81
2022/01/03 20:50:17;;;;;;;27.32;16.60;;;;;;;6.05;83.06;99751.02;1731674;82;21715;-81
2022/01/03 20:52:47;;;;;;;15.43;9.38;;;;;;;5.97;83.12;99752.13;1710393;82;21567;-80
2022/01/03 20:55:14;;;;;;;14.05;7.20;;;;;;;5.90;83.11;99743.62;1728792;82;21082;-81
2022/01/03 20:57:43;;;;;;;12.13;5.47;;;;;;;5.85;83.26;99747.39;1728357;81;21058;-81